Terminal Aerodrome Forecast
Issued by NWS

Home | Current Version | Previous Version | Text Only | Print | Product List | Glossary On
Versions: 1 2 3 4 5 6 7 8 9 10 11 12 13 14 15 16 17 18 19 20 21 22 23 24 25 26 27 28 29 30 31
000
FTUS41 KCTP 310056 AAB
TAFLNS
TAF AMD
KLNS 310056Z 3101/3124 36008KT 1 1/2SM +RA BR VCTS BKN024CB OVC060
     FM310115 36010KT 4SM -SHRA BKN025 OVC060
     FM310200 36006KT P6SM SCT025 OVC060
     FM310400 00000KT 4SM BR SCT150
     FM311400 VRB03KT P6SM FEW250=

USA.gov is the U.S. government's official web portal to all federal, state and local government web resources and services.